Main page
METAR-TAF:

METAR-TAF

Airports :

Riyadh Air Base

Riyadh, Saudi Arabia

latitude: 24-43N, longitude: 046-44E, elevation: 635 m

METAR: missing

Time: 07:41 (04:41 UTC)

Forecast

The report was made 5 hours and 41 minutes ago, at 23:00 UTC
Forecast valid from 21 at 00 UTC to 22 at 06 UTC
Wind 3 kt from variable directions
Visibility: 5000 m
widespread dust
Becoming
from 21 at 06 UTC to 21 at 08 UTC
Wind 10 kt from the South/Southeast

TAF: OERY 202300Z 2100/2206 VRB03KT 5000 DU NSC BECMG 2106/2108 15010KT

Weather observations and forecasts of more than 4000 airports (METAR and TAF reports).

The available stations are represented by yellow and red dots on the map.

Hover mouse over dot to see the name of the station.

Then click to see weather observations and forecasts.

To change the map : click on the green buttons with a black cross to zoom in, on the green button with a dash to zoom out, or on the green arrows for adjacent maps.


METAR-TAF: